SCAT

Details ICAO SCAT
Name DESIERTO DE ATACAMA
Region Chile
Timezone America/Santiago (UTC-3.0)
Plans Departing 20
Arriving 19
Stats Elevation 670 ft / 204 m (AMSL)
Location -27.261246° -70.779220°
Runways 1
Magnetic Variation 1.437° W
Sunrise 2017-12-16 09:44:40 UTC / 2017-12-16 06:44:40 Local
Sunset 2017-12-16 23:35:47 UTC / 2017-12-16 20:35:47 Local
Advertisement - Login to hide

Runways

ID Width Length Bearing (true) Bearing (mag) Surface Threshold Offset Overrun Length
17 148 ft / 45 m 7,214 ft / 2,199 m 175.35° 176.79° Asphalt 0 ft / 0 m 195 ft / 59 m
35 148 ft / 45 m 7,214 ft / 2,199 m 355.35° 356.79° Asphalt 0 ft / 0 m 195 ft / 59 m

Approach Navaids

Runway Type Ident Frequency Range Bearing (true) Bearing (mag) Slope Elevation
17 Localiser IDAT 110.10 MHz 18 nm / 33 km 175.50° 176.94° - 670 ft / 204 m (AMSL)
17 Glidescope IDAT 110.10 MHz 10 nm / 19 km 175.35° 176.79° 3.00° 628 ft / 191 m (AMSL)

Map

Weather


0- 5 10 15 20 25 30 35+ Temperature / ° C

Clouds and Precipitation
Forecast for 2017-12-16 12:00 UTC. Updated 2 hours ago

Ground ~20,000 ft ~40,000 ft Winds

METAR

SCAT 161000Z AUTO 35005KT //// // ///023 17/11 Q1014

TAF

TAF SCAT 160442Z 1606/1706 33004KT 9999 OVC019 TN14/1606Z TX24/1618Z BECMG 1612/1614 27010KT BECMG 1616/1618 CAVOK BECMG 1700/1702 24004KT 9999 OVC020
Warning: Do not use this data for real-world aviation or navigation. No guarantee of current accuracy is given.